sensor_id;sensor_type;location;lat;lon;timestamp;pressure;altitude;pressure_sealevel;temperature;humidity
4598;BME280;62772;48.646;8.906;2023-04-27T00:04:01;96333.09;;;5.15;100.00
4598;BME280;62772;48.646;8.906;2023-04-27T00:09:03;96328.34;;;5.51;100.00
4598;BME280;62772;48.646;8.906;2023-04-27T00:14:03;96336.34;;;5.46;100.00
4598;BME280;62772;48.646;8.906;2023-04-27T00:19:04;96325.47;;;5.48;100.00
4598;BME280;62772;48.646;8.906;2023-04-27T00:24:05;96329.94;;;5.13;100.00
4598;BME280;62772;48.646;8.906;2023-04-27T00:29:05;96329.22;;;4.97;100.00
4598;BME280;62772;48.646;8.906;2023-04-27T00:34:06;96319.66;;;5.01;100.00
4598;BME280;62772;48.646;8.906;2023-04-27T00:39:06;96316.31;;;4.90;100.00
4598;BME280;62772;48.646;8.906;2023-04-27T00:44:07;96308.59;;;4.94;100.00
4598;BME280;62772;48.646;8.906;2023-04-27T00:49:08;96300.06;;;5.02;100.00
4598;BME280;62772;48.646;8.906;2023-04-27T00:54:09;96290.66;;;4.85;100.00
4598;BME280;62772;48.646;8.906;2023-04-27T00:59:10;96293.03;;;4.82;100.00
4598;BME280;62772;48.646;8.906;2023-04-27T01:04:10;96294.16;;;4.70;100.00
4598;BME280;62772;48.646;8.906;2023-04-27T01:09:11;96304.81;;;4.55;100.00
4598;BME280;62772;48.646;8.906;2023-04-27T01:14:12;96304.53;;;4.57;100.00
4598;BME280;62772;48.646;8.906;2023-04-27T01:19:12;96304.25;;;4.63;100.00
4598;BME280;62772;48.646;8.906;2023-04-27T01:24:13;96315.63;;;4.64;100.00
4598;BME280;62772;48.646;8.906;2023-04-27T01:29:13;96310.53;;;4.78;100.00
4598;BME280;62772;48.646;8.906;2023-04-27T01:34:15;96322.22;;;5.56;100.00
4598;BME280;62772;48.646;8.906;2023-04-27T01:39:15;96306.59;;;5.89;100.00
4598;BME280;62772;48.646;8.906;2023-04-27T01:44:16;96308.19;;;5.55;100.00
4598;BME280;62772;48.646;8.906;2023-04-27T01:49:16;96302.50;;;4.93;100.00
4598;BME280;62772;48.646;8.906;2023-04-27T01:54:16;96309.72;;;4.82;100.00
4598;BME280;62772;48.646;8.906;2023-04-27T01:59:17;96309.53;;;4.63;100.00
4598;BME280;62772;48.646;8.906;2023-04-27T02:04:17;96309.84;;;4.57;100.00
4598;BME280;62772;48.646;8.906;2023-04-27T02:09:18;96319.59;;;4.66;100.00
4598;BME280;62772;48.646;8.906;2023-04-27T02:14:18;96315.06;;;4.67;100.00
4598;BME280;62772;48.646;8.906;2023-04-27T02:19:20;96317.78;;;4.57;100.00
4598;BME280;62772;48.646;8.906;2023-04-27T02:24:21;96318.00;;;4.65;100.00
4598;BME280;62772;48.646;8.906;2023-04-27T02:29:21;96320.72;;;5.05;100.00
4598;BME280;62772;48.646;8.906;2023-04-27T02:34:22;96317.75;;;5.80;100.00
4598;BME280;62772;48.646;8.906;2023-04-27T02:39:22;96319.41;;;4.97;100.00
4598;BME280;62772;48.646;8.906;2023-04-27T02:44:23;96325.03;;;4.90;100.00
4598;BME280;62772;48.646;8.906;2023-04-27T02:49:24;96324.34;;;4.64;100.00
4598;BME280;62772;48.646;8.906;2023-04-27T02:54:25;96321.72;;;4.59;100.00
4598;BME280;62772;48.646;8.906;2023-04-27T02:59:25;96323.47;;;4.84;100.00
4598;BME280;62772;48.646;8.906;2023-04-27T03:04:26;96326.94;;;4.75;100.00
4598;BME280;62772;48.646;8.906;2023-04-27T03:09:27;96321.59;;;5.35;100.00
4598;BME280;62772;48.646;8.906;2023-04-27T03:14:27;96323.47;;;5.29;100.00
4598;BME280;62772;48.646;8.906;2023-04-27T03:19:28;96320.88;;;5.58;100.00
4598;BME280;62772;48.646;8.906;2023-04-27T03:24:31;96327.81;;;5.84;100.00
4598;BME280;62772;48.646;8.906;2023-04-27T03:29:32;96332.97;;;6.04;100.00
4598;BME280;62772;48.646;8.906;2023-04-27T03:34:32;96329.31;;;6.24;100.00
4598;BME280;62772;48.646;8.906;2023-04-27T03:39:33;96326.41;;;5.96;100.00
4598;BME280;62772;48.646;8.906;2023-04-27T03:44:33;96332.28;;;5.88;100.00
4598;BME280;62772;48.646;8.906;2023-04-27T03:49:35;96327.22;;;5.92;100.00
4598;BME280;62772;48.646;8.906;2023-04-27T03:54:36;96340.09;;;5.40;100.00
4598;BME280;62772;48.646;8.906;2023-04-27T03:59:36;96333.81;;;5.25;100.00
4598;BME280;62772;48.646;8.906;2023-04-27T04:04:37;96334.66;;;5.21;100.00
4598;BME280;62772;48.646;8.906;2023-04-27T04:09:37;96338.44;;;5.04;100.00
4598;BME280;62772;48.646;8.906;2023-04-27T04:14:38;96336.78;;;5.14;100.00
4598;BME280;62772;48.646;8.906;2023-04-27T04:19:38;96338.06;;;5.21;100.00
4598;BME280;62772;48.646;8.906;2023-04-27T04:24:39;96341.84;;;5.10;100.00
4598;BME280;62772;48.646;8.906;2023-04-27T04:29:39;96339.84;;;4.92;100.00
4598;BME280;62772;48.646;8.906;2023-04-27T04:34:40;96347.50;;;4.88;100.00
4598;BME280;62772;48.646;8.906;2023-04-27T04:39:40;96349.91;;;4.84;100.00
4598;BME280;62772;48.646;8.906;2023-04-27T04:44:41;96359.44;;;4.80;100.00
4598;BME280;62772;48.646;8.906;2023-04-27T04:49:42;96357.34;;;4.77;100.00
4598;BME280;62772;48.646;8.906;2023-04-27T04:54:43;96361.31;;;4.80;100.00
4598;BME280;62772;48.646;8.906;2023-04-27T04:59:44;96357.91;;;4.69;100.00
4598;BME280;62772;48.646;8.906;2023-04-27T05:04:45;96348.69;;;4.56;100.00
4598;BME280;62772;48.646;8.906;2023-04-27T05:09:45;96358.72;;;4.64;100.00
4598;BME280;62772;48.646;8.906;2023-04-27T05:14:46;96353.69;;;4.73;100.00
4598;BME280;62772;48.646;8.906;2023-04-27T05:19:47;96356.03;;;4.80;100.00
4598;BME280;62772;48.646;8.906;2023-04-27T05:24:47;96357.56;;;4.91;100.00
4598;BME280;62772;48.646;8.906;2023-04-27T05:29:48;96358.13;;;4.83;100.00
4598;BME280;62772;48.646;8.906;2023-04-27T05:34:49;96367.34;;;4.96;100.00
4598;BME280;62772;48.646;8.906;2023-04-27T05:39:50;96360.16;;;5.01;100.00
4598;BME280;62772;48.646;8.906;2023-04-27T05:44:51;96373.03;;;5.18;100.00
4598;BME280;62772;48.646;8.906;2023-04-27T05:49:52;96372.13;;;5.38;100.00
4598;BME280;62772;48.646;8.906;2023-04-27T05:54:52;96381.84;;;5.53;100.00
4598;BME280;62772;48.646;8.906;2023-04-27T05:59:52;96391.00;;;5.66;100.00
4598;BME280;62772;48.646;8.906;2023-04-27T06:04:53;96387.47;;;5.81;100.00
4598;BME280;62772;48.646;8.906;2023-04-27T06:09:53;96395.19;;;5.77;100.00
4598;BME280;62772;48.646;8.906;2023-04-27T06:14:54;96406.69;;;6.02;100.00
4598;BME280;62772;48.646;8.906;2023-04-27T06:19:54;96412.59;;;6.23;100.00
4598;BME280;62772;48.646;8.906;2023-04-27T06:24:54;96413.78;;;6.41;100.00
4598;BME280;62772;48.646;8.906;2023-04-27T06:29:55;96408.13;;;6.48;100.00
4598;BME280;62772;48.646;8.906;2023-04-27T06:34:56;96420.34;;;6.73;100.00
4598;BME280;62772;48.646;8.906;2023-04-27T06:39:57;96419.88;;;6.90;100.00
4598;BME280;62772;48.646;8.906;2023-04-27T06:44:57;96414.13;;;7.07;100.00
4598;BME280;62772;48.646;8.906;2023-04-27T06:49:58;96408.31;;;7.05;100.00
4598;BME280;62772;48.646;8.906;2023-04-27T06:54:58;96411.91;;;7.14;100.00
4598;BME280;62772;48.646;8.906;2023-04-27T06:59:58;96412.00;;;7.28;100.00
4598;BME280;62772;48.646;8.906;2023-04-27T07:04:59;96413.69;;;7.43;100.00
4598;BME280;62772;48.646;8.906;2023-04-27T07:10:00;96422.84;;;7.70;100.00
4598;BME280;62772;48.646;8.906;2023-04-27T07:15:00;96410.28;;;7.75;100.00
4598;BME280;62772;48.646;8.906;2023-04-27T07:20:04;96414.38;;;7.87;100.00
4598;BME280;62772;48.646;8.906;2023-04-27T07:25:05;96412.84;;;7.99;100.00
4598;BME280;62772;48.646;8.906;2023-04-27T07:30:06;96409.16;;;8.14;100.00
4598;BME280;62772;48.646;8.906;2023-04-27T07:35:09;96406.13;;;8.21;100.00
4598;BME280;62772;48.646;8.906;2023-04-27T07:40:09;96403.75;;;8.33;100.00
4598;BME280;62772;48.646;8.906;2023-04-27T07:45:16;96405.81;;;8.69;93.24
4598;BME280;62772;48.646;8.906;2023-04-27T07:50:19;96404.13;;;8.87;96.76
4598;BME280;62772;48.646;8.906;2023-04-27T07:55:24;96406.63;;;9.12;92.93
4598;BME280;62772;48.646;8.906;2023-04-27T08:00:25;96399.78;;;9.19;93.66
4598;BME280;62772;48.646;8.906;2023-04-27T08:05:25;96397.63;;;9.07;94.97
4598;BME280;62772;48.646;8.906;2023-04-27T08:10:26;96403.13;;;9.39;90.82
4598;BME280;62772;48.646;8.906;2023-04-27T08:15:26;96398.91;;;9.60;86.89
4598;BME280;62772;48.646;8.906;2023-04-27T08:20:27;96396.88;;;9.80;79.70
4598;BME280;62772;48.646;8.906;2023-04-27T08:25:27;96385.50;;;9.88;80.04
4598;BME280;62772;48.646;8.906;2023-04-27T08:30:28;96383.28;;;9.90;78.22
4598;BME280;62772;48.646;8.906;2023-04-27T08:35:28;96375.06;;;10.32;77.93
4598;BME280;62772;48.646;8.906;2023-04-27T08:40:29;96377.50;;;10.20;74.03
4598;BME280;62772;48.646;8.906;2023-04-27T08:45:29;96385.22;;;10.44;77.54
4598;BME280;62772;48.646;8.906;2023-04-27T08:50:29;96371.94;;;10.61;79.37
4598;BME280;62772;48.646;8.906;2023-04-27T08:55:30;96377.34;;;10.79;79.79
4598;BME280;62772;48.646;8.906;2023-04-27T09:00:40;96376.38;;;10.75;73.53
4598;BME280;62772;48.646;8.906;2023-04-27T09:05:45;96374.38;;;10.89;76.68
4598;BME280;62772;48.646;8.906;2023-04-27T09:10:47;96383.50;;;10.88;71.56
4598;BME280;62772;48.646;8.906;2023-04-27T09:15:50;96375.41;;;10.62;70.26
4598;BME280;62772;48.646;8.906;2023-04-27T09:20:51;96384.09;;;10.76;72.55
4598;BME280;62772;48.646;8.906;2023-04-27T09:25:56;96382.09;;;10.82;71.56
4598;BME280;62772;48.646;8.906;2023-04-27T09:30:58;96382.91;;;11.08;72.59
4598;BME280;62772;48.646;8.906;2023-04-27T09:36:01;96373.69;;;11.32;80.53
4598;BME280;62772;48.646;8.906;2023-04-27T09:41:02;96380.50;;;11.47;71.99
4598;BME280;62772;48.646;8.906;2023-04-27T09:46:03;96368.53;;;11.53;72.78
4598;BME280;62772;48.646;8.906;2023-04-27T09:51:03;96373.22;;;11.91;70.79
4598;BME280;62772;48.646;8.906;2023-04-27T09:56:29;96381.28;;;11.48;67.13
4598;BME280;62772;48.646;8.906;2023-04-27T10:01:49;96370.44;;;11.61;70.72
4598;BME280;62772;48.646;8.906;2023-04-27T10:06:56;96380.81;;;11.98;76.34
4598;BME280;62772;48.646;8.906;2023-04-27T10:17:50;96374.28;;;12.34;70.00
4598;BME280;62772;48.646;8.906;2023-04-27T10:22:52;96375.88;;;12.35;72.34
4598;BME280;62772;48.646;8.906;2023-04-27T10:28:00;96369.50;;;12.01;71.18
4598;BME280;62772;48.646;8.906;2023-04-27T10:33:09;96362.19;;;12.19;73.05
4598;BME280;62772;48.646;8.906;2023-04-27T10:38:16;96361.09;;;12.67;73.97
4598;BME280;62772;48.646;8.906;2023-04-27T10:43:17;96358.44;;;12.97;69.48
4598;BME280;62772;48.646;8.906;2023-04-27T10:48:18;96357.13;;;12.74;69.96
4598;BME280;62772;48.646;8.906;2023-04-27T10:53:18;96352.81;;;12.90;66.68
4598;BME280;62772;48.646;8.906;2023-04-27T10:58:22;96350.94;;;13.12;66.35
4598;BME280;62772;48.646;8.906;2023-04-27T11:03:22;96353.75;;;13.15;68.29
4598;BME280;62772;48.646;8.906;2023-04-27T11:08:24;96346.88;;;13.56;62.74
4598;BME280;62772;48.646;8.906;2023-04-27T11:13:25;96352.09;;;13.32;63.97
4598;BME280;62772;48.646;8.906;2023-04-27T11:18:30;96335.91;;;13.19;70.77
4598;BME280;62772;48.646;8.906;2023-04-27T11:23:32;96339.69;;;13.18;66.04
4598;BME280;62772;48.646;8.906;2023-04-27T11:28:37;96338.31;;;13.12;66.16
4598;BME280;62772;48.646;8.906;2023-04-27T11:33:38;96350.28;;;13.15;67.68
4598;BME280;62772;48.646;8.906;2023-04-27T11:38:41;96345.84;;;13.19;65.52
4598;BME280;62772;48.646;8.906;2023-04-27T11:43:43;96345.91;;;13.10;63.67
4598;BME280;62772;48.646;8.906;2023-04-27T11:48:50;96346.88;;;13.35;63.41
4598;BME280;62772;48.646;8.906;2023-04-27T11:53:51;96346.66;;;13.40;63.16
4598;BME280;62772;48.646;8.906;2023-04-27T11:58:51;96344.50;;;13.55;63.79
4598;BME280;62772;48.646;8.906;2023-04-27T12:03:52;96337.50;;;13.63;61.83
4598;BME280;62772;48.646;8.906;2023-04-27T12:08:52;96334.88;;;13.75;64.20
4598;BME280;62772;48.646;8.906;2023-04-27T12:13:53;96333.69;;;13.85;58.67
4598;BME280;62772;48.646;8.906;2023-04-27T12:18:54;96338.66;;;14.07;62.40
4598;BME280;62772;48.646;8.906;2023-04-27T12:23:54;96334.44;;;14.19;57.41
4598;BME280;62772;48.646;8.906;2023-04-27T12:28:55;96335.91;;;14.16;58.22
4598;BME280;62772;48.646;8.906;2023-04-27T12:33:55;96338.47;;;14.12;57.62
4598;BME280;62772;48.646;8.906;2023-04-27T12:38:58;96340.53;;;14.40;58.59
4598;BME280;62772;48.646;8.906;2023-04-27T12:43:59;96336.38;;;14.30;58.09
4598;BME280;62772;48.646;8.906;2023-04-27T12:49:00;96324.88;;;14.55;60.42
4598;BME280;62772;48.646;8.906;2023-04-27T12:54:05;96324.97;;;14.46;58.58
4598;BME280;62772;48.646;8.906;2023-04-27T12:59:06;96329.91;;;13.86;57.51
4598;BME280;62772;48.646;8.906;2023-04-27T13:04:07;96313.06;;;14.10;59.69
4598;BME280;62772;48.646;8.906;2023-04-27T13:09:08;96306.69;;;14.60;59.46
4598;BME280;62772;48.646;8.906;2023-04-27T13:14:09;96310.13;;;14.85;57.71
4598;BME280;62772;48.646;8.906;2023-04-27T13:19:11;96311.56;;;14.58;54.48
4598;BME280;62772;48.646;8.906;2023-04-27T13:24:12;96310.25;;;14.64;56.29
4598;BME280;62772;48.646;8.906;2023-04-27T13:29:12;96321.00;;;14.77;56.12
4598;BME280;62772;48.646;8.906;2023-04-27T13:34:13;96313.09;;;14.34;57.29
4598;BME280;62772;48.646;8.906;2023-04-27T13:39:13;96302.25;;;14.43;57.93
4598;BME280;62772;48.646;8.906;2023-04-27T13:44:13;96304.53;;;14.91;56.23
4598;BME280;62772;48.646;8.906;2023-04-27T13:49:14;96295.81;;;15.34;55.51
4598;BME280;62772;48.646;8.906;2023-04-27T13:54:14;96306.84;;;15.17;56.39
4598;BME280;62772;48.646;8.906;2023-04-27T13:59:15;96297.94;;;15.29;56.49
4598;BME280;62772;48.646;8.906;2023-04-27T14:04:16;96296.16;;;15.20;57.66
4598;BME280;62772;48.646;8.906;2023-04-27T14:09:16;96289.88;;;15.29;58.41
4598;BME280;62772;48.646;8.906;2023-04-27T14:14:17;96279.16;;;15.16;55.92
4598;BME280;62772;48.646;8.906;2023-04-27T14:19:17;96293.09;;;14.94;59.08
4598;BME280;62772;48.646;8.906;2023-04-27T14:24:19;96290.69;;;15.29;57.83
4598;BME280;62772;48.646;8.906;2023-04-27T14:29:20;96289.13;;;15.16;61.97
4598;BME280;62772;48.646;8.906;2023-04-27T14:34:20;96291.91;;;15.60;58.21
4598;BME280;62772;48.646;8.906;2023-04-27T14:39:21;96289.25;;;15.48;57.25
4598;BME280;62772;48.646;8.906;2023-04-27T14:44:21;96290.78;;;15.61;55.92
4598;BME280;62772;48.646;8.906;2023-04-27T14:49:21;96288.47;;;15.88;56.68
4598;BME280;62772;48.646;8.906;2023-04-27T14:54:22;96296.81;;;15.70;55.68
4598;BME280;62772;48.646;8.906;2023-04-27T14:59:23;96296.41;;;15.28;57.90
4598;BME280;62772;48.646;8.906;2023-04-27T15:04:23;96288.28;;;15.40;57.95
4598;BME280;62772;48.646;8.906;2023-04-27T15:09:24;96291.31;;;15.38;60.50
4598;BME280;62772;48.646;8.906;2023-04-27T15:14:24;96293.56;;;15.36;59.18
4598;BME280;62772;48.646;8.906;2023-04-27T15:19:25;96285.31;;;15.57;56.82
4598;BME280;62772;48.646;8.906;2023-04-27T15:24:25;96284.09;;;15.83;57.68
4598;BME280;62772;48.646;8.906;2023-04-27T15:29:26;96281.22;;;15.64;57.14
4598;BME280;62772;48.646;8.906;2023-04-27T15:34:26;96279.66;;;15.34;59.02
4598;BME280;62772;48.646;8.906;2023-04-27T15:39:27;96278.44;;;15.32;59.66
4598;BME280;62772;48.646;8.906;2023-04-27T15:44:27;96273.78;;;15.16;58.00
4598;BME280;62772;48.646;8.906;2023-04-27T15:49:28;96271.50;;;15.59;57.11
4598;BME280;62772;48.646;8.906;2023-04-27T15:54:29;96266.22;;;15.63;58.79
4598;BME280;62772;48.646;8.906;2023-04-27T15:59:30;96259.34;;;15.93;57.38
4598;BME280;62772;48.646;8.906;2023-04-27T16:04:30;96261.09;;;16.33;54.86
4598;BME280;62772;48.646;8.906;2023-04-27T16:09:31;96249.75;;;16.24;54.13
4598;BME280;62772;48.646;8.906;2023-04-27T16:14:31;96247.13;;;16.28;53.87
4598;BME280;62772;48.646;8.906;2023-04-27T16:19:32;96237.13;;;16.12;53.45
4598;BME280;62772;48.646;8.906;2023-04-27T16:24:32;96242.09;;;16.10;53.56
4598;BME280;62772;48.646;8.906;2023-04-27T16:29:33;96230.53;;;15.94;57.81
4598;BME280;62772;48.646;8.906;2023-04-27T16:34:33;96226.91;;;15.74;54.37
4598;BME280;62772;48.646;8.906;2023-04-27T16:39:35;96231.22;;;15.91;56.23
4598;BME280;62772;48.646;8.906;2023-04-27T16:44:36;96238.50;;;16.06;58.61
4598;BME280;62772;48.646;8.906;2023-04-27T16:49:37;96232.19;;;16.30;54.02
4598;BME280;62772;48.646;8.906;2023-04-27T16:54:38;96228.25;;;16.44;54.50
4598;BME280;62772;48.646;8.906;2023-04-27T16:59:38;96226.31;;;16.44;55.13
4598;BME280;62772;48.646;8.906;2023-04-27T17:04:39;96215.41;;;16.37;54.28
4598;BME280;62772;48.646;8.906;2023-04-27T17:09:40;96220.09;;;16.40;53.41
4598;BME280;62772;48.646;8.906;2023-04-27T17:14:40;96218.75;;;17.01;51.76
4598;BME280;62772;48.646;8.906;2023-04-27T17:19:41;96219.09;;;17.00;54.85
4598;BME280;62772;48.646;8.906;2023-04-27T17:24:42;96227.97;;;16.84;54.20
4598;BME280;62772;48.646;8.906;2023-04-27T17:29:42;96232.38;;;16.73;54.69
4598;BME280;62772;48.646;8.906;2023-04-27T17:34:43;96227.34;;;16.56;53.37
4598;BME280;62772;48.646;8.906;2023-04-27T17:39:44;96234.41;;;16.44;55.83
4598;BME280;62772;48.646;8.906;2023-04-27T17:44:45;96227.66;;;16.35;54.34
4598;BME280;62772;48.646;8.906;2023-04-27T17:49:46;96234.63;;;16.20;55.70
4598;BME280;62772;48.646;8.906;2023-04-27T17:54:46;96222.53;;;16.13;58.29
4598;BME280;62772;48.646;8.906;2023-04-27T17:59:47;96227.50;;;16.11;56.71
4598;BME280;62772;48.646;8.906;2023-04-27T18:04:49;96222.28;;;15.74;64.33
4598;BME280;62772;48.646;8.906;2023-04-27T18:09:57;96215.72;;;15.72;65.03
4598;BME280;62772;48.646;8.906;2023-04-27T18:14:59;96233.28;;;15.25;67.31
4598;BME280;62772;48.646;8.906;2023-04-27T18:20:00;96237.78;;;14.56;68.48
4598;BME280;62772;48.646;8.906;2023-04-27T18:25:05;96241.81;;;14.62;73.33
4598;BME280;62772;48.646;8.906;2023-04-27T18:30:06;96244.25;;;14.18;80.50
4598;BME280;62772;48.646;8.906;2023-04-27T18:35:07;96235.53;;;14.33;81.87
4598;BME280;62772;48.646;8.906;2023-04-27T18:40:08;96229.94;;;14.13;83.68
4598;BME280;62772;48.646;8.906;2023-04-27T18:45:09;96241.22;;;14.31;90.66
4598;BME280;62772;48.646;8.906;2023-04-27T18:50:10;96233.84;;;14.04;91.01
4598;BME280;62772;48.646;8.906;2023-04-27T18:55:12;96240.25;;;14.24;88.48
4598;BME280;62772;48.646;8.906;2023-04-27T19:00:16;96235.06;;;14.19;90.73
4598;BME280;62772;48.646;8.906;2023-04-27T19:05:17;96248.13;;;12.86;97.20
4598;BME280;62772;48.646;8.906;2023-04-27T19:10:18;96247.66;;;12.84;100.00
4598;BME280;62772;48.646;8.906;2023-04-27T19:15:19;96252.63;;;12.95;100.00
4598;BME280;62772;48.646;8.906;2023-04-27T19:20:19;96250.16;;;13.11;99.79
4598;BME280;62772;48.646;8.906;2023-04-27T19:25:21;96246.03;;;12.92;100.00
4598;BME280;62772;48.646;8.906;2023-04-27T19:30:23;96248.53;;;12.08;100.00
4598;BME280;62772;48.646;8.906;2023-04-27T19:35:23;96244.59;;;12.44;100.00
4598;BME280;62772;48.646;8.906;2023-04-27T19:40:25;96238.78;;;12.42;100.00
4598;BME280;62772;48.646;8.906;2023-04-27T19:45:26;96237.34;;;12.14;100.00
4598;BME280;62772;48.646;8.906;2023-04-27T19:50:26;96241.75;;;12.10;100.00
4598;BME280;62772;48.646;8.906;2023-04-27T19:55:27;96237.53;;;12.01;100.00
4598;BME280;62772;48.646;8.906;2023-04-27T20:00:27;96244.00;;;12.38;100.00
4598;BME280;62772;48.646;8.906;2023-04-27T20:05:28;96239.47;;;11.83;100.00
4598;BME280;62772;48.646;8.906;2023-04-27T20:10:29;96244.22;;;11.68;100.00
4598;BME280;62772;48.646;8.906;2023-04-27T20:15:29;96238.13;;;11.41;100.00
4598;BME280;62772;48.646;8.906;2023-04-27T20:20:30;96237.22;;;11.02;100.00
4598;BME280;62772;48.646;8.906;2023-04-27T20:25:31;96238.28;;;10.84;100.00
4598;BME280;62772;48.646;8.906;2023-04-27T20:30:32;96238.75;;;11.21;100.00
4598;BME280;62772;48.646;8.906;2023-04-27T20:35:32;96231.19;;;10.88;100.00
4598;BME280;62772;48.646;8.906;2023-04-27T20:40:33;96236.09;;;10.28;100.00
4598;BME280;62772;48.646;8.906;2023-04-27T20:45:33;96221.78;;;10.64;100.00
4598;BME280;62772;48.646;8.906;2023-04-27T20:50:34;96220.47;;;10.36;100.00
4598;BME280;62772;48.646;8.906;2023-04-27T20:55:34;96216.06;;;10.40;100.00
4598;BME280;62772;48.646;8.906;2023-04-27T21:00:35;96212.47;;;10.36;100.00
4598;BME280;62772;48.646;8.906;2023-04-27T21:05:35;96207.09;;;9.95;100.00
4598;BME280;62772;48.646;8.906;2023-04-27T21:10:36;96204.78;;;10.03;100.00
4598;BME280;62772;48.646;8.906;2023-04-27T21:15:37;96200.06;;;10.08;100.00
4598;BME280;62772;48.646;8.906;2023-04-27T21:20:37;96192.56;;;10.10;100.00
4598;BME280;62772;48.646;8.906;2023-04-27T21:25:38;96185.41;;;10.37;100.00
4598;BME280;62772;48.646;8.906;2023-04-27T21:30:38;96184.81;;;9.91;100.00
4598;BME280;62772;48.646;8.906;2023-04-27T21:35:39;96188.09;;;9.57;100.00
4598;BME280;62772;48.646;8.906;2023-04-27T21:40:39;96182.34;;;9.32;100.00
4598;BME280;62772;48.646;8.906;2023-04-27T21:45:40;96179.56;;;9.46;100.00
4598;BME280;62772;48.646;8.906;2023-04-27T21:50:41;96168.59;;;9.48;100.00
4598;BME280;62772;48.646;8.906;2023-04-27T21:55:42;96164.09;;;9.25;100.00
4598;BME280;62772;48.646;8.906;2023-04-27T22:00:42;96169.03;;;9.41;100.00
4598;BME280;62772;48.646;8.906;2023-04-27T22:05:43;96167.00;;;10.27;100.00
4598;BME280;62772;48.646;8.906;2023-04-27T22:10:44;96154.81;;;10.43;100.00
4598;BME280;62772;48.646;8.906;2023-04-27T22:15:46;96165.06;;;9.61;100.00
4598;BME280;62772;48.646;8.906;2023-04-27T22:20:47;96158.75;;;9.48;100.00
4598;BME280;62772;48.646;8.906;2023-04-27T22:25:48;96165.88;;;8.85;100.00
4598;BME280;62772;48.646;8.906;2023-04-27T22:30:49;96168.09;;;8.92;100.00
4598;BME280;62772;48.646;8.906;2023-04-27T22:35:49;96159.91;;;8.65;100.00
4598;BME280;62772;48.646;8.906;2023-04-27T22:40:50;96164.84;;;8.58;100.00
4598;BME280;62772;48.646;8.906;2023-04-27T22:45:50;96172.44;;;8.65;100.00
4598;BME280;62772;48.646;8.906;2023-04-27T22:50:50;96168.44;;;8.76;100.00
4598;BME280;62772;48.646;8.906;2023-04-27T22:55:51;96153.41;;;8.94;100.00
4598;BME280;62772;48.646;8.906;2023-04-27T23:00:54;96141.16;;;9.78;100.00
4598;BME280;62772;48.646;8.906;2023-04-27T23:05:55;96152.56;;;9.39;100.00
4598;BME280;62772;48.646;8.906;2023-04-27T23:10:55;96157.63;;;8.95;100.00
4598;BME280;62772;48.646;8.906;2023-04-27T23:15:56;96160.81;;;8.61;100.00
4598;BME280;62772;48.646;8.906;2023-04-27T23:20:57;96142.09;;;9.51;100.00
4598;BME280;62772;48.646;8.906;2023-04-27T23:25:57;96143.41;;;9.00;100.00
4598;BME280;62772;48.646;8.906;2023-04-27T23:30:57;96129.16;;;9.04;100.00
4598;BME280;62772;48.646;8.906;2023-04-27T23:35:58;96123.97;;;8.99;100.00
4598;BME280;62772;48.646;8.906;2023-04-27T23:40:59;96107.97;;;9.62;100.00
4598;BME280;62772;48.646;8.906;2023-04-27T23:45:59;96111.81;;;9.78;100.00
4598;BME280;62772;48.646;8.906;2023-04-27T23:51:01;96099.03;;;10.15;100.00
4598;BME280;62772;48.646;8.906;2023-04-27T23:56:02;96100.09;;;10.14;100.00
